createdAt,value
2022-07-30T00:00:15.066Z,20
2022-07-30T00:01:15.066Z,15
2022-07-30T00:02:15.067Z,14
2022-07-30T00:03:15.067Z,14
2022-07-30T00:04:15.068Z,16
2022-07-30T00:05:15.090Z,11
2022-07-30T00:06:15.091Z,10
2022-07-30T00:07:15.091Z,10
2022-07-30T00:08:15.092Z,12
2022-07-30T00:09:15.092Z,11
2022-07-30T00:10:15.093Z,11
2022-07-30T00:11:15.133Z,13
2022-07-30T00:12:15.094Z,12
2022-07-30T00:13:15.094Z,10
2022-07-30T00:14:15.094Z,10
2022-07-30T00:15:15.072Z,10
2022-07-30T00:16:15.073Z,13
2022-07-30T00:17:15.073Z,13
2022-07-30T00:18:15.074Z,14
2022-07-30T00:19:15.074Z,14
2022-07-30T00:20:15.075Z,15
2022-07-30T00:21:15.097Z,18
2022-07-30T00:22:15.098Z,19
2022-07-30T00:23:15.098Z,17
2022-07-30T00:24:15.099Z,18
2022-07-30T00:25:15.099Z,21
2022-07-30T00:26:15.099Z,17
2022-07-30T00:27:15.100Z,16
2022-07-30T00:28:15.100Z,19
2022-07-30T00:29:15.101Z,20
2022-07-30T00:30:15.079Z,22
2022-07-30T00:31:15.079Z,22
2022-07-30T00:32:15.080Z,22
2022-07-30T00:33:15.080Z,19
2022-07-30T00:34:15.080Z,21
2022-07-30T00:35:15.081Z,20
2022-07-30T00:36:15.104Z,22
2022-07-30T00:37:15.104Z,22
2022-07-30T00:38:15.104Z,19
2022-07-30T00:39:15.105Z,20
2022-07-30T00:40:15.105Z,18
2022-07-30T00:41:15.106Z,19
2022-07-30T00:42:15.106Z,20
2022-07-30T00:43:15.107Z,18
2022-07-30T00:44:15.107Z,18
2022-07-30T00:45:15.085Z,20
2022-07-30T00:46:15.085Z,19
2022-07-30T00:47:15.086Z,19
2022-07-30T00:48:15.086Z,18
2022-07-30T00:49:15.087Z,18
2022-07-30T00:50:15.087Z,16
2022-07-30T00:51:15.110Z,17
2022-07-30T00:52:15.110Z,15
2022-07-30T00:53:15.111Z,15
2022-07-30T00:54:15.111Z,16
2022-07-30T00:55:15.112Z,14
2022-07-30T00:56:15.112Z,14
2022-07-30T00:57:15.152Z,15
2022-07-30T00:58:15.113Z,16
2022-07-30T00:59:15.113Z,16
2022-07-30T01:00:15.155Z,16
2022-07-30T01:01:15.793Z,18
2022-07-30T01:02:15.092Z,16
2022-07-30T01:03:15.092Z,15
2022-07-30T01:04:15.093Z,16
2022-07-30T01:05:15.093Z,16
2022-07-30T01:06:15.116Z,16
2022-07-30T01:07:15.116Z,15
2022-07-30T01:08:15.117Z,16
2022-07-30T01:09:15.117Z,17
2022-07-30T01:10:15.118Z,17
2022-07-30T01:11:15.118Z,15
2022-07-30T01:12:15.159Z,18
2022-07-30T01:13:15.119Z,17
2022-07-30T01:14:15.119Z,16
2022-07-30T01:15:15.120Z,15
2022-07-30T01:16:15.098Z,15
2022-07-30T01:17:15.098Z,14
2022-07-30T01:18:15.099Z,15
2022-07-30T01:19:15.099Z,16
2022-07-30T01:20:15.099Z,15
2022-07-30T01:21:15.100Z,16
2022-07-30T01:22:15.123Z,15
2022-07-30T01:23:15.123Z,16
2022-07-30T01:24:15.123Z,14
2022-07-30T01:25:15.124Z,17
2022-07-30T01:26:15.125Z,15
2022-07-30T01:27:15.125Z,15
2022-07-30T01:28:15.125Z,14
2022-07-30T01:29:15.126Z,16
2022-07-30T01:30:15.126Z,15
2022-07-30T01:31:15.104Z,16
2022-07-30T01:32:15.104Z,14
2022-07-30T01:33:15.105Z,15
2022-07-30T01:34:15.105Z,14
2022-07-30T01:35:15.106Z,17
2022-07-30T01:36:15.106Z,15
2022-07-30T01:37:15.129Z,14
2022-07-30T01:38:15.129Z,13
2022-07-30T01:39:15.130Z,14
2022-07-30T01:40:15.130Z,13
2022-07-30T01:41:15.130Z,12
2022-07-30T01:42:15.131Z,12
2022-07-30T01:43:15.131Z,15
2022-07-30T01:44:15.132Z,12
2022-07-30T01:45:15.132Z,12
2022-07-30T01:46:15.110Z,13
2022-07-30T01:47:15.110Z,15
2022-07-30T01:48:15.111Z,13
2022-07-30T01:49:15.111Z,15
2022-07-30T01:50:15.112Z,13
2022-07-30T01:51:15.112Z,14
2022-07-30T01:52:15.135Z,16
2022-07-30T01:53:15.135Z,16
2022-07-30T01:54:15.135Z,15
2022-07-30T01:55:15.136Z,16
2022-07-30T01:56:15.136Z,16
2022-07-30T01:57:15.137Z,15
2022-07-30T01:58:15.177Z,16
2022-07-30T01:59:15.138Z,15
2022-07-30T02:00:15.138Z,16
2022-07-30T02:01:21.614Z,16
2022-07-30T02:02:15.116Z,15
2022-07-30T02:03:15.117Z,13
2022-07-30T02:04:15.117Z,13
2022-07-30T02:05:15.118Z,15
2022-07-30T02:06:15.118Z,13
2022-07-30T02:07:15.141Z,15
2022-07-30T02:08:15.141Z,14
2022-07-30T02:09:15.142Z,16
2022-07-30T02:10:15.142Z,15
2022-07-30T02:11:15.142Z,13
2022-07-30T02:12:15.143Z,14
2022-07-30T02:13:15.160Z,13
2022-07-30T02:14:15.144Z,17
2022-07-30T02:15:15.144Z,19
2022-07-30T02:16:15.145Z,17
2022-07-30T02:17:15.123Z,14
2022-07-30T02:18:15.123Z,15
2022-07-30T02:19:15.123Z,17
2022-07-30T02:20:15.124Z,15
2022-07-30T02:21:15.124Z,15
2022-07-30T02:22:15.124Z,16
2022-07-30T02:23:15.147Z,16
2022-07-30T02:24:15.148Z,15
2022-07-30T02:25:15.148Z,17
2022-07-30T02:26:15.149Z,15
2022-07-30T02:27:15.149Z,16
2022-07-30T02:28:15.149Z,13
2022-07-30T02:29:15.150Z,14
2022-07-30T02:30:15.150Z,14
2022-07-30T02:31:15.151Z,13
2022-07-30T02:32:15.128Z,13
2022-07-30T02:33:15.129Z,12
2022-07-30T02:34:15.129Z,14
2022-07-30T02:35:15.130Z,14
2022-07-30T02:36:15.130Z,15
2022-07-30T02:37:15.130Z,15
2022-07-30T02:38:15.153Z,14
2022-07-30T02:39:15.154Z,15
2022-07-30T02:40:15.154Z,19
2022-07-30T02:41:15.154Z,17
2022-07-30T02:42:15.155Z,18
2022-07-30T02:43:15.155Z,17
2022-07-30T02:44:15.156Z,18
2022-07-30T02:45:15.156Z,19
2022-07-30T02:46:15.157Z,17
2022-07-30T02:47:15.134Z,19
2022-07-30T02:48:15.135Z,19
2022-07-30T02:49:15.135Z,21
2022-07-30T02:50:15.136Z,20
2022-07-30T02:51:15.136Z,18
2022-07-30T02:52:15.136Z,20
2022-07-30T02:53:15.159Z,18
2022-07-30T02:54:15.159Z,15
2022-07-30T02:55:15.160Z,18
2022-07-30T02:56:15.160Z,14
2022-07-30T02:57:15.161Z,17
2022-07-30T02:58:15.161Z,14
2022-07-30T02:59:15.226Z,15
2022-07-30T03:00:15.162Z,15
2022-07-30T03:01:20.707Z,14
2022-07-30T03:02:15.140Z,12
2022-07-30T03:03:15.141Z,13
2022-07-30T03:04:15.141Z,11
2022-07-30T03:05:15.142Z,11
2022-07-30T03:06:15.142Z,11
2022-07-30T03:07:15.142Z,14
2022-07-30T03:08:15.165Z,12
2022-07-30T03:09:15.165Z,12
2022-07-30T03:10:15.166Z,11
2022-07-30T03:11:15.166Z,11
2022-07-30T03:12:15.167Z,14
2022-07-30T03:13:15.167Z,10
2022-07-30T03:14:15.232Z,11
2022-07-30T03:15:15.168Z,12
2022-07-30T03:16:15.168Z,10
2022-07-30T03:17:15.169Z,11
2022-07-30T03:18:15.147Z,10
2022-07-30T03:19:15.147Z,13
2022-07-30T03:20:15.147Z,11
2022-07-30T03:21:15.148Z,10
2022-07-30T03:22:15.148Z,10
2022-07-30T03:23:15.149Z,14
2022-07-30T03:24:15.171Z,12
2022-07-30T03:25:15.172Z,12
2022-07-30T03:26:15.172Z,13
2022-07-30T03:27:15.173Z,13
2022-07-30T03:28:15.173Z,13
2022-07-30T03:29:15.173Z,13
2022-07-30T03:30:15.174Z,14
2022-07-30T03:31:15.174Z,11
2022-07-30T03:32:15.175Z,12
2022-07-30T03:33:15.153Z,9
2022-07-30T03:34:15.153Z,10
2022-07-30T03:35:15.153Z,9
2022-07-30T03:36:15.154Z,12
2022-07-30T03:37:15.154Z,12
2022-07-30T03:38:15.155Z,14
2022-07-30T03:39:15.177Z,16
2022-07-30T03:40:15.178Z,13
2022-07-30T03:41:15.178Z,13
2022-07-30T03:42:15.179Z,14
2022-07-30T03:43:15.179Z,15
2022-07-30T03:44:15.179Z,17
2022-07-30T03:45:15.180Z,21
2022-07-30T03:46:15.181Z,19
2022-07-30T03:47:15.181Z,21
2022-07-30T03:48:15.159Z,17
2022-07-30T03:49:15.159Z,20
2022-07-30T03:50:15.159Z,17
2022-07-30T03:51:15.160Z,15
2022-07-30T03:52:15.160Z,15
2022-07-30T03:53:15.161Z,14
2022-07-30T03:54:15.183Z,13
2022-07-30T03:55:15.184Z,13
2022-07-30T03:56:15.184Z,14
2022-07-30T03:57:15.185Z,16
2022-07-30T03:58:15.185Z,14
2022-07-30T03:59:15.185Z,15
2022-07-30T04:00:15.250Z,15
2022-07-30T04:01:15.186Z,15
2022-07-30T04:02:15.187Z,17
2022-07-30T04:03:15.165Z,16
2022-07-30T04:04:15.165Z,16
2022-07-30T04:05:15.165Z,17
2022-07-30T04:06:15.166Z,15
2022-07-30T04:07:15.166Z,15
2022-07-30T04:08:15.167Z,15
2022-07-30T04:09:15.189Z,12
2022-07-30T04:10:15.190Z,13
2022-07-30T04:11:15.190Z,14
2022-07-30T04:12:15.191Z,13
2022-07-30T04:13:15.191Z,13
2022-07-30T04:14:15.192Z,15
2022-07-30T04:15:15.192Z,19
2022-07-30T04:16:15.192Z,20
2022-07-30T04:17:15.193Z,16
2022-07-30T04:18:15.170Z,17
2022-07-30T04:19:15.171Z,16
2022-07-30T04:20:15.171Z,15
2022-07-30T04:21:15.172Z,14
2022-07-30T04:22:15.172Z,14
2022-07-30T04:23:15.172Z,12
2022-07-30T04:24:15.195Z,14
2022-07-30T04:25:15.196Z,13
2022-07-30T04:26:15.196Z,13
2022-07-30T04:27:15.197Z,14
2022-07-30T04:28:15.197Z,14
2022-07-30T04:29:15.197Z,15
2022-07-30T04:30:15.198Z,16
2022-07-30T04:31:15.198Z,13
2022-07-30T04:32:15.199Z,17
2022-07-30T04:33:15.176Z,13
2022-07-30T04:34:15.177Z,14
2022-07-30T04:35:15.177Z,15
2022-07-30T04:36:15.178Z,15
2022-07-30T04:37:15.178Z,15
2022-07-30T04:38:15.178Z,15
2022-07-30T04:39:15.201Z,19
2022-07-30T04:40:15.202Z,16
2022-07-30T04:41:15.202Z,15
2022-07-30T04:42:15.202Z,16
2022-07-30T04:43:15.203Z,17
2022-07-30T04:44:15.203Z,17
2022-07-30T04:45:15.204Z,16
2022-07-30T04:46:15.204Z,17
2022-07-30T04:47:15.205Z,20
2022-07-30T04:48:15.246Z,19
2022-07-30T04:49:15.183Z,18
2022-07-30T04:50:15.183Z,19
2022-07-30T04:51:15.184Z,18
2022-07-30T04:52:15.184Z,16
2022-07-30T04:53:15.184Z,15
2022-07-30T04:54:15.185Z,15
2022-07-30T04:55:15.208Z,16
2022-07-30T04:56:15.208Z,15
2022-07-30T04:57:15.217Z,17
2022-07-30T04:58:15.209Z,15
2022-07-30T04:59:15.209Z,17
2022-07-30T05:00:15.210Z,14
2022-07-30T05:01:15.210Z,11
2022-07-30T05:02:15.211Z,13
2022-07-30T05:03:15.211Z,13
2022-07-30T05:04:15.189Z,13
2022-07-30T05:05:15.189Z,13
2022-07-30T05:06:15.190Z,13
2022-07-30T05:07:15.190Z,13
2022-07-30T05:08:15.191Z,13
2022-07-30T05:09:15.191Z,15
2022-07-30T05:10:15.214Z,15
2022-07-30T05:11:15.214Z,13
2022-07-30T05:12:15.214Z,15
2022-07-30T05:13:15.215Z,13
2022-07-30T05:14:15.216Z,16
2022-07-30T05:15:15.216Z,12
2022-07-30T05:16:15.216Z,16
2022-07-30T05:17:15.217Z,21
2022-07-30T05:18:15.217Z,12
2022-07-30T05:19:15.195Z,12
2022-07-30T05:20:15.195Z,13
2022-07-30T05:21:15.196Z,11
2022-07-30T05:22:15.196Z,12
2022-07-30T05:23:15.197Z,13
2022-07-30T05:24:15.197Z,11
2022-07-30T05:25:15.220Z,7
2022-07-30T05:26:15.220Z,11
2022-07-30T05:27:15.221Z,11
2022-07-30T05:28:15.221Z,8
2022-07-30T05:29:15.221Z,12
2022-07-30T05:30:15.222Z,10
2022-07-30T05:31:15.223Z,11
2022-07-30T05:32:15.223Z,13
2022-07-30T05:33:15.223Z,12
2022-07-30T05:34:15.201Z,11
2022-07-30T05:35:15.201Z,7
2022-07-30T05:36:15.202Z,10
2022-07-30T05:37:15.202Z,7
2022-07-30T05:38:15.203Z,6
2022-07-30T05:39:15.203Z,11
2022-07-30T05:40:15.226Z,13
2022-07-30T05:41:15.226Z,16
2022-07-30T05:42:15.227Z,17
2022-07-30T05:43:15.227Z,11
2022-07-30T05:44:15.227Z,12
2022-07-30T05:45:15.228Z,12
2022-07-30T05:46:15.229Z,14
2022-07-30T05:47:15.229Z,11
2022-07-30T05:48:15.229Z,10
2022-07-30T05:49:15.295Z,14
2022-07-30T05:50:15.208Z,13
2022-07-30T05:51:15.208Z,11
2022-07-30T05:52:15.231Z,10
2022-07-30T05:53:15.209Z,11
2022-07-30T05:54:15.209Z,11
2022-07-30T05:55:15.243Z,14
2022-07-30T05:56:15.232Z,13
2022-07-30T05:57:15.233Z,7
2022-07-30T05:58:15.250Z,7
2022-07-30T05:59:15.234Z,13
2022-07-30T06:00:15.234Z,16
2022-07-30T06:01:15.235Z,14
2022-07-30T06:02:15.235Z,13
2022-07-30T06:03:15.236Z,12
2022-07-30T06:04:15.236Z,12
2022-07-30T06:05:15.214Z,14
2022-07-30T06:06:15.214Z,13
2022-07-30T06:07:15.215Z,17
2022-07-30T06:08:15.215Z,14
2022-07-30T06:09:15.215Z,15
2022-07-30T06:11:15.238Z,18
2022-07-30T06:12:15.239Z,22
2022-07-30T06:13:15.240Z,17
2022-07-30T06:14:15.240Z,16
2022-07-30T06:15:15.241Z,18
2022-07-30T06:16:15.241Z,19
2022-07-30T06:17:15.241Z,16
2022-07-30T06:18:15.242Z,16
2022-07-30T06:19:15.242Z,20
2022-07-30T06:20:15.220Z,21
2022-07-30T06:21:15.220Z,20
2022-07-30T06:22:15.221Z,21
2022-07-30T06:23:15.221Z,18
2022-07-30T06:24:15.222Z,17
2022-07-30T06:25:15.222Z,16
2022-07-30T06:26:15.245Z,15
2022-07-30T06:27:15.245Z,16
2022-07-30T06:28:15.246Z,21
2022-07-30T06:29:15.246Z,21
2022-07-30T06:30:15.247Z,25
2022-07-30T06:31:15.247Z,26
2022-07-30T06:32:15.248Z,26
2022-07-30T06:33:15.248Z,21
2022-07-30T06:34:15.248Z,19
2022-07-30T06:35:15.226Z,18
2022-07-30T06:36:15.227Z,18
2022-07-30T06:37:15.227Z,18
2022-07-30T06:38:15.228Z,20
2022-07-30T06:39:15.228Z,12
2022-07-30T06:40:15.228Z,14
2022-07-30T06:41:15.251Z,13
2022-07-30T06:42:15.252Z,16
2022-07-30T06:43:15.252Z,17
2022-07-30T06:44:15.253Z,20
2022-07-30T06:45:15.253Z,23
2022-07-30T06:46:15.253Z,20
2022-07-30T06:47:15.254Z,21
2022-07-30T06:48:15.255Z,18
2022-07-30T06:49:15.255Z,22
2022-07-30T06:50:15.272Z,22
2022-07-30T06:51:15.233Z,27
2022-07-30T06:52:15.234Z,24
2022-07-30T06:53:15.256Z,19
2022-07-30T06:54:15.234Z,25
2022-07-30T06:55:15.235Z,27
2022-07-30T06:56:15.271Z,26
2022-07-30T06:57:15.258Z,26
2022-07-30T06:58:15.259Z,28
2022-07-30T06:59:15.275Z,35
2022-07-30T07:00:15.259Z,36
2022-07-30T07:01:15.260Z,36
2022-07-30T07:02:15.260Z,27
2022-07-30T07:03:15.261Z,26
2022-07-30T07:04:15.262Z,29
2022-07-30T07:05:15.262Z,25
2022-07-30T07:06:15.240Z,28
2022-07-30T07:07:15.240Z,25
2022-07-30T07:08:15.241Z,31
2022-07-30T07:09:15.241Z,27
2022-07-30T07:10:15.241Z,23
2022-07-30T07:11:15.242Z,31
2022-07-30T07:12:15.265Z,27
2022-07-30T07:13:15.265Z,30
2022-07-30T07:14:15.266Z,37
2022-07-30T07:15:15.266Z,30
2022-07-30T07:16:15.267Z,23
2022-07-30T07:17:15.267Z,27
2022-07-30T07:18:15.268Z,29
2022-07-30T07:19:15.268Z,33
2022-07-30T07:20:15.269Z,30
2022-07-30T07:21:15.246Z,31
2022-07-30T07:22:15.247Z,35
2022-07-30T07:23:15.247Z,34
2022-07-30T07:24:15.248Z,25
2022-07-30T07:25:15.248Z,31
2022-07-30T07:26:15.284Z,34
2022-07-30T07:27:15.271Z,30
2022-07-30T07:28:15.272Z,35
2022-07-30T07:29:15.289Z,44
2022-07-30T07:30:15.273Z,42
2022-07-30T07:31:15.273Z,35
2022-07-30T07:32:15.274Z,33
2022-07-30T07:33:15.274Z,37
2022-07-30T07:34:15.275Z,35
2022-07-30T07:35:15.275Z,32
2022-07-30T07:36:15.253Z,33
2022-07-30T07:37:15.253Z,31
2022-07-30T07:38:15.254Z,33
2022-07-30T07:39:15.254Z,39
2022-07-30T07:40:15.255Z,39
2022-07-30T07:41:15.255Z,33
2022-07-30T07:42:15.278Z,47
2022-07-30T07:43:15.278Z,42
2022-07-30T07:44:15.279Z,45
2022-07-30T07:45:15.280Z,51
2022-07-30T07:46:15.280Z,53
2022-07-30T07:47:15.280Z,44
2022-07-30T07:48:15.281Z,48
2022-07-30T07:49:15.282Z,53
2022-07-30T07:50:15.282Z,41
2022-07-30T07:51:15.260Z,40
2022-07-30T07:52:15.260Z,48
2022-07-30T07:53:15.261Z,34
2022-07-30T07:54:15.261Z,45
2022-07-30T07:55:15.262Z,33
2022-07-30T07:56:15.262Z,51
2022-07-30T07:57:15.285Z,61
2022-07-30T07:58:15.285Z,67
2022-07-30T07:59:15.286Z,65
2022-07-30T08:00:15.286Z,52
2022-07-30T08:01:15.287Z,54
2022-07-30T08:02:15.287Z,45
2022-07-30T08:03:15.288Z,53
2022-07-30T08:04:15.289Z,53
2022-07-30T08:05:15.289Z,53
2022-07-30T08:06:15.354Z,56
2022-07-30T08:07:15.267Z,50
2022-07-30T08:08:15.268Z,57
2022-07-30T08:09:15.291Z,57
2022-07-30T08:10:15.269Z,46
2022-07-30T08:11:15.269Z,51
2022-07-30T08:12:15.294Z,56
2022-07-30T08:13:15.293Z,54
2022-07-30T08:14:15.293Z,48
2022-07-30T08:15:15.302Z,61
2022-07-30T08:16:15.294Z,40
2022-07-30T08:17:15.295Z,49
2022-07-30T08:18:15.295Z,42
2022-07-30T08:19:15.296Z,53
2022-07-30T08:20:15.296Z,49
2022-07-30T08:21:15.297Z,52
2022-07-30T08:22:15.275Z,55
2022-07-30T08:23:15.275Z,61
2022-07-30T08:24:15.276Z,57
2022-07-30T08:25:15.276Z,66
2022-07-30T08:26:15.277Z,54
2022-07-30T08:27:15.299Z,52
2022-07-30T08:28:15.300Z,46
2022-07-30T08:29:15.300Z,53
2022-07-30T08:30:15.309Z,58
2022-07-30T08:31:15.301Z,57
2022-07-30T08:32:15.302Z,53
2022-07-30T08:33:15.302Z,52
2022-07-30T08:34:15.303Z,58
2022-07-30T08:35:15.304Z,53
2022-07-30T08:36:15.304Z,56
2022-07-30T08:37:15.282Z,56
2022-07-30T08:38:15.283Z,66
2022-07-30T08:39:15.283Z,69
2022-07-30T08:40:15.284Z,72
2022-07-30T08:41:15.284Z,73
2022-07-30T08:42:15.285Z,75
2022-07-30T08:43:15.308Z,62
2022-07-30T08:44:15.308Z,55
2022-07-30T08:45:15.309Z,55
2022-07-30T08:46:15.310Z,59
2022-07-30T08:47:15.310Z,65
2022-07-30T08:48:15.311Z,63
2022-07-30T08:49:15.311Z,64
2022-07-30T08:50:15.312Z,60
2022-07-30T08:51:15.312Z,66
2022-07-30T08:52:15.291Z,61
2022-07-30T08:53:15.291Z,72
2022-07-30T08:54:15.292Z,77
2022-07-30T08:55:15.292Z,77
2022-07-30T08:56:15.293Z,77
2022-07-30T08:57:15.293Z,85
2022-07-30T08:58:15.316Z,79
2022-07-30T08:59:15.317Z,81
2022-07-30T09:00:15.317Z,77
2022-07-30T09:01:15.318Z,77
2022-07-30T09:02:15.318Z,67
2022-07-30T09:03:15.319Z,63
2022-07-30T09:04:15.320Z,64
2022-07-30T09:05:15.321Z,72
2022-07-30T09:06:15.321Z,92
2022-07-30T09:07:15.346Z,88
2022-07-30T09:08:15.299Z,99
2022-07-30T09:09:15.300Z,89
2022-07-30T09:10:15.300Z,86
2022-07-30T09:11:15.301Z,105
2022-07-30T09:12:15.302Z,100
2022-07-30T09:13:15.324Z,86
2022-07-30T09:14:15.325Z,99
2022-07-30T09:15:15.325Z,84
2022-07-30T09:16:15.335Z,89
2022-07-30T09:17:15.327Z,80
2022-07-30T09:18:15.327Z,80
2022-07-30T09:19:15.328Z,73
2022-07-30T09:20:15.329Z,65
2022-07-30T09:21:15.329Z,82
2022-07-30T09:22:15.370Z,78
2022-07-30T09:23:15.307Z,86
2022-07-30T09:24:15.308Z,79
2022-07-30T09:25:15.309Z,80
2022-07-30T09:26:15.309Z,79
2022-07-30T09:27:15.310Z,65
2022-07-30T09:28:15.310Z,59
2022-07-30T09:29:15.333Z,75
2022-07-30T09:30:15.334Z,71
2022-07-30T09:31:15.374Z,72
2022-07-30T09:32:15.335Z,74
2022-07-30T09:33:15.335Z,78
2022-07-30T09:34:15.336Z,81
2022-07-30T09:35:15.337Z,69
2022-07-30T09:36:15.337Z,67
2022-07-30T09:37:15.338Z,59
2022-07-30T09:38:15.316Z,63
2022-07-30T09:39:15.316Z,57
2022-07-30T09:40:15.317Z,49
2022-07-30T09:41:15.317Z,63
2022-07-30T09:42:15.318Z,57
2022-07-30T09:43:15.318Z,75
2022-07-30T09:44:15.341Z,84
2022-07-30T09:45:15.342Z,81
2022-07-30T09:46:15.342Z,72
2022-07-30T09:47:15.343Z,74
2022-07-30T09:48:15.343Z,75
2022-07-30T09:49:15.344Z,63
2022-07-30T09:50:15.345Z,62
2022-07-30T09:51:15.345Z,75
2022-07-30T09:52:15.346Z,80
2022-07-30T09:53:15.324Z,80
2022-07-30T09:54:15.324Z,64
2022-07-30T09:55:15.325Z,63
2022-07-30T09:56:15.325Z,70
2022-07-30T09:57:15.326Z,68
2022-07-30T09:58:15.327Z,67
2022-07-30T09:59:15.350Z,69
2022-07-30T10:00:15.350Z,64
2022-07-30T10:01:15.350Z,61
2022-07-30T10:02:15.351Z,57
2022-07-30T10:03:15.352Z,67
2022-07-30T10:04:15.352Z,73
2022-07-30T10:05:15.353Z,68
2022-07-30T10:06:15.353Z,69
2022-07-30T10:07:15.354Z,61
2022-07-30T10:08:15.395Z,62
2022-07-30T10:09:15.333Z,72
2022-07-30T10:10:15.333Z,67
2022-07-30T10:11:15.334Z,67
2022-07-30T10:12:15.334Z,78
2022-07-30T10:13:15.335Z,70
2022-07-30T10:14:15.335Z,67
2022-07-30T10:15:15.358Z,80
2022-07-30T10:16:15.359Z,80
2022-07-30T10:17:15.399Z,73
2022-07-30T10:18:15.360Z,66
2022-07-30T10:19:15.361Z,72
2022-07-30T10:20:15.361Z,70
2022-07-30T10:21:15.362Z,68
2022-07-30T10:22:15.362Z,65
2022-07-30T10:23:15.364Z,66
2022-07-30T10:24:15.341Z,63
2022-07-30T10:25:15.342Z,69
2022-07-30T10:26:15.342Z,67
2022-07-30T10:27:15.343Z,56
2022-07-30T10:28:15.343Z,66
2022-07-30T10:29:15.344Z,55
2022-07-30T10:30:15.367Z,66
2022-07-30T10:31:15.367Z,63
2022-07-30T10:32:15.368Z,61
2022-07-30T10:33:15.369Z,58
2022-07-30T10:34:15.369Z,59
2022-07-30T10:35:15.370Z,51
2022-07-30T10:36:15.370Z,59
2022-07-30T10:37:15.371Z,63
2022-07-30T10:38:15.371Z,58
2022-07-30T10:39:15.349Z,56
2022-07-30T10:40:15.350Z,54
2022-07-30T10:41:15.351Z,47
2022-07-30T10:42:15.351Z,47
2022-07-30T10:43:15.352Z,48
2022-07-30T10:44:15.352Z,47
2022-07-30T10:45:15.376Z,43
2022-07-30T10:46:15.376Z,51
2022-07-30T10:47:15.376Z,45
2022-07-30T10:48:15.377Z,54
2022-07-30T10:49:15.378Z,46
2022-07-30T10:50:15.378Z,43
2022-07-30T10:51:15.379Z,43
2022-07-30T10:52:15.380Z,48
2022-07-30T10:53:15.380Z,44
2022-07-30T10:54:15.358Z,50
2022-07-30T10:55:15.359Z,61
2022-07-30T10:56:15.359Z,51
2022-07-30T10:57:15.360Z,39
2022-07-30T10:58:15.360Z,45
2022-07-30T10:59:15.361Z,51
2022-07-30T11:00:15.384Z,66
2022-07-30T11:01:15.384Z,42
2022-07-30T11:02:15.385Z,50
2022-07-30T11:03:15.385Z,55
2022-07-30T11:04:15.386Z,44
2022-07-30T11:05:15.387Z,49
2022-07-30T11:06:15.387Z,39
2022-07-30T11:07:15.388Z,45
2022-07-30T11:08:15.388Z,45
2022-07-30T11:09:15.454Z,39
2022-07-30T11:10:15.367Z,41
2022-07-30T11:11:15.368Z,46
2022-07-30T11:12:15.390Z,50
2022-07-30T11:13:15.369Z,50
2022-07-30T11:14:15.369Z,53
2022-07-30T11:15:15.396Z,68
2022-07-30T11:16:15.393Z,45
2022-07-30T11:17:15.393Z,49
2022-07-30T11:18:15.410Z,49
2022-07-30T11:19:15.395Z,52
2022-07-30T11:20:15.395Z,49
2022-07-30T11:21:15.396Z,45
2022-07-30T11:22:20.619Z,58
2022-07-30T11:23:15.397Z,48
2022-07-30T11:24:15.375Z,54
2022-07-30T11:25:15.376Z,54
2022-07-30T11:26:15.376Z,55
2022-07-30T11:27:15.377Z,63
2022-07-30T11:28:15.377Z,53
2022-07-30T11:29:15.378Z,56
2022-07-30T11:30:15.401Z,60
2022-07-30T11:31:15.402Z,54
2022-07-30T11:32:15.402Z,60
2022-07-30T11:33:15.403Z,55
2022-07-30T11:34:15.403Z,54
2022-07-30T11:35:15.404Z,52
2022-07-30T11:36:15.404Z,55
2022-07-30T11:37:15.405Z,54
2022-07-30T11:38:15.405Z,52
2022-07-30T11:39:15.447Z,52
2022-07-30T11:40:15.384Z,60
2022-07-30T11:41:15.385Z,53
2022-07-30T11:42:15.385Z,60
2022-07-30T11:43:15.386Z,58
2022-07-30T11:44:15.386Z,59
2022-07-30T11:45:15.387Z,63
2022-07-30T11:46:15.410Z,64
2022-07-30T11:47:15.410Z,62
2022-07-30T11:48:15.419Z,64
2022-07-30T11:49:15.412Z,68
2022-07-30T11:50:15.412Z,64
2022-07-30T11:51:15.413Z,63
2022-07-30T11:52:15.413Z,59
2022-07-30T11:53:15.414Z,64
2022-07-30T11:54:15.415Z,54
2022-07-30T11:55:15.393Z,49
2022-07-30T11:56:15.393Z,60
2022-07-30T11:57:15.394Z,59
2022-07-30T11:58:15.394Z,61
2022-07-30T11:59:15.395Z,66
2022-07-30T12:00:15.396Z,76
2022-07-30T12:01:15.418Z,61
2022-07-30T12:02:15.419Z,55
2022-07-30T12:03:15.420Z,56
2022-07-30T12:04:15.421Z,57
2022-07-30T12:05:15.421Z,57
2022-07-30T12:06:15.421Z,55
2022-07-30T12:07:15.422Z,63
2022-07-30T12:08:15.423Z,67
2022-07-30T12:09:15.423Z,69
2022-07-30T12:10:15.401Z,71
2022-07-30T12:11:15.402Z,62
2022-07-30T12:12:15.402Z,51
2022-07-30T12:13:15.403Z,52
2022-07-30T12:14:15.404Z,48
2022-07-30T12:15:15.404Z,45
2022-07-30T12:16:15.427Z,58
2022-07-30T12:17:15.427Z,51
2022-07-30T12:18:15.428Z,62
2022-07-30T12:19:15.429Z,65
2022-07-30T12:20:15.429Z,52
2022-07-30T12:21:15.430Z,44
2022-07-30T12:22:19.702Z,47
2022-07-30T12:23:15.431Z,49
2022-07-30T12:24:15.432Z,52
2022-07-30T12:25:15.410Z,52
2022-07-30T12:26:15.410Z,59
2022-07-30T12:27:15.411Z,44
2022-07-30T12:28:15.411Z,47
2022-07-30T12:29:15.412Z,45
2022-07-30T12:30:15.413Z,56
2022-07-30T12:31:15.436Z,55
2022-07-30T12:32:15.436Z,46
2022-07-30T12:33:15.437Z,49
2022-07-30T12:34:15.437Z,61
2022-07-30T12:35:15.438Z,56
2022-07-30T12:36:15.438Z,49
2022-07-30T12:37:15.439Z,38
2022-07-30T12:38:15.440Z,43
2022-07-30T12:39:15.440Z,37
2022-07-30T12:40:15.418Z,46
2022-07-30T12:41:15.419Z,48
2022-07-30T12:42:15.419Z,40
2022-07-30T12:43:15.420Z,38
2022-07-30T12:44:15.420Z,36
2022-07-30T12:45:15.421Z,40
2022-07-30T12:46:15.444Z,39
2022-07-30T12:47:15.444Z,48
2022-07-30T12:48:15.445Z,45
2022-07-30T12:49:15.446Z,43
2022-07-30T12:50:15.446Z,48
2022-07-30T12:51:15.447Z,50
2022-07-30T12:52:15.472Z,44
2022-07-30T12:53:15.448Z,46
2022-07-30T12:54:15.448Z,42
2022-07-30T12:55:15.449Z,49
2022-07-30T12:56:15.427Z,47
2022-07-30T12:57:15.428Z,46
2022-07-30T12:58:15.428Z,45
2022-07-30T12:59:15.429Z,45
2022-07-30T13:00:15.429Z,49
2022-07-30T13:01:15.430Z,43
2022-07-30T13:03:15.453Z,47
2022-07-30T13:04:15.454Z,49
2022-07-30T13:05:15.454Z,43
2022-07-30T13:06:15.455Z,41
2022-07-30T13:07:15.456Z,52
2022-07-30T13:08:15.456Z,51
2022-07-30T13:09:15.457Z,50
2022-07-30T13:10:15.458Z,57
2022-07-30T13:11:15.435Z,58
2022-07-30T13:12:15.436Z,47
2022-07-30T13:13:15.437Z,43
2022-07-30T13:14:15.437Z,44
2022-07-30T13:15:15.438Z,49
2022-07-30T13:16:15.438Z,44
2022-07-30T13:17:15.461Z,53
2022-07-30T13:18:15.462Z,55
2022-07-30T13:19:15.462Z,46
2022-07-30T13:20:15.463Z,45
2022-07-30T13:21:15.463Z,52
2022-07-30T13:22:15.464Z,47
2022-07-30T13:23:15.465Z,43
2022-07-30T13:24:15.465Z,44
2022-07-30T13:25:15.466Z,48
2022-07-30T13:26:15.444Z,48
2022-07-30T13:27:15.445Z,54
2022-07-30T13:28:15.445Z,50
2022-07-30T13:29:15.446Z,43
2022-07-30T13:30:15.446Z,48
2022-07-30T13:31:15.447Z,58
2022-07-30T13:32:15.470Z,49
2022-07-30T13:33:15.470Z,61
2022-07-30T13:34:15.495Z,51
2022-07-30T13:35:15.471Z,50
2022-07-30T13:36:15.472Z,49
2022-07-30T13:37:15.473Z,56
2022-07-30T13:38:15.473Z,50
2022-07-30T13:39:15.474Z,40
2022-07-30T13:40:15.474Z,40
2022-07-30T13:41:15.452Z,41
2022-07-30T13:42:15.453Z,44
2022-07-30T13:43:15.454Z,41
2022-07-30T13:44:15.454Z,46
2022-07-30T13:45:15.455Z,45
2022-07-30T13:46:15.455Z,47
2022-07-30T13:47:15.478Z,58
2022-07-30T13:48:15.479Z,55
2022-07-30T13:49:15.479Z,58
2022-07-30T13:50:15.480Z,47
2022-07-30T13:51:15.481Z,51
2022-07-30T13:52:15.481Z,49
2022-07-30T13:53:15.482Z,44
2022-07-30T13:54:15.482Z,39
2022-07-30T13:55:15.483Z,45
2022-07-30T13:56:15.461Z,41
2022-07-30T13:57:15.461Z,44
2022-07-30T13:58:15.462Z,49
2022-07-30T13:59:15.463Z,46
2022-07-30T14:00:15.463Z,49
2022-07-30T14:01:15.464Z,44
2022-07-30T14:02:15.487Z,42
2022-07-30T14:03:15.487Z,44
2022-07-30T14:04:15.488Z,38
2022-07-30T14:05:15.488Z,40
2022-07-30T14:06:15.489Z,44
2022-07-30T14:07:15.490Z,44
2022-07-30T14:08:15.490Z,51
2022-07-30T14:09:15.491Z,47
2022-07-30T14:10:15.491Z,47
2022-07-30T14:11:15.469Z,43
2022-07-30T14:12:15.470Z,34
2022-07-30T14:13:15.470Z,28
2022-07-30T14:14:15.471Z,34
2022-07-30T14:15:15.472Z,41
2022-07-30T14:16:15.472Z,36
2022-07-30T14:17:15.495Z,27